createdAt,value
2023-03-23T00:00:02.790Z,100
2023-03-23T00:01:01.876Z,100
2023-03-23T00:02:02.358Z,100
2023-03-23T00:03:02.509Z,100
2023-03-23T00:04:02.361Z,100
2023-03-23T00:05:02.412Z,100
2023-03-23T00:06:02.284Z,100
2023-03-23T00:07:02.340Z,100
2023-03-23T00:08:02.247Z,100
2023-03-23T00:09:02.249Z,100
2023-03-23T00:10:02.212Z,100
2023-03-23T00:11:02.483Z,100
2023-03-23T00:12:02.439Z,100
2023-03-23T00:13:02.326Z,100
2023-03-23T00:14:02.341Z,100
2023-03-23T00:15:02.316Z,100
2023-03-23T00:16:04.790Z,100
2023-03-23T00:17:02.420Z,100
2023-03-23T00:18:01.709Z,100
2023-03-23T00:19:01.570Z,100
2023-03-23T00:20:01.698Z,100
2023-03-23T00:21:01.680Z,100
2023-03-23T00:22:01.784Z,100
2023-03-23T00:23:01.822Z,100
2023-03-23T00:24:01.886Z,100
2023-03-23T00:25:02.193Z,100
2023-03-23T00:26:02.870Z,100
2023-03-23T00:27:01.685Z,100
2023-03-23T00:28:01.527Z,100
2023-03-23T00:29:01.974Z,100
2023-03-23T00:30:01.594Z,100
2023-03-23T00:31:01.606Z,100
2023-03-23T00:32:01.558Z,100
2023-03-23T00:33:01.687Z,100
2023-03-23T00:34:01.780Z,100
2023-03-23T00:35:02.162Z,100
2023-03-23T00:36:01.940Z,100
2023-03-23T00:37:01.987Z,100
2023-03-23T00:38:02.643Z,100
2023-03-23T00:39:02.208Z,100
2023-03-23T00:40:02.167Z,100
2023-03-23T00:41:02.200Z,100
2023-03-23T00:42:02.339Z,100
2023-03-23T00:43:02.096Z,100
2023-03-23T00:44:02.140Z,100
2023-03-23T00:45:01.929Z,100
2023-03-23T00:46:01.883Z,100
2023-03-23T00:47:02.258Z,100
2023-03-23T00:48:02.076Z,100
2023-03-23T00:49:01.929Z,100
2023-03-23T00:50:02.193Z,100
2023-03-23T00:51:01.920Z,100
2023-03-23T00:52:01.964Z,100
2023-03-23T00:53:01.921Z,100
2023-03-23T00:54:02.095Z,100
2023-03-23T00:55:02.132Z,100
2023-03-23T00:56:01.986Z,100
2023-03-23T00:57:01.970Z,100
2023-03-23T00:58:02.050Z,100
2023-03-23T00:59:02.268Z,100
2023-03-23T01:00:06.719Z,100
2023-03-23T01:01:02.311Z,100
2023-03-23T01:02:02.306Z,100
2023-03-23T01:03:02.221Z,100
2023-03-23T01:04:02.278Z,100
2023-03-23T01:05:02.219Z,100
2023-03-23T01:06:02.067Z,100
2023-03-23T01:07:02.214Z,100
2023-03-23T01:08:01.917Z,100
2023-03-23T01:09:01.863Z,100
2023-03-23T01:10:01.891Z,100
2023-03-23T01:11:01.712Z,100
2023-03-23T01:12:01.796Z,100
2023-03-23T01:13:01.618Z,100
2023-03-23T01:14:01.653Z,100
2023-03-23T01:15:01.521Z,100
2023-03-23T01:16:03.229Z,100
2023-03-23T01:17:02.328Z,100
2023-03-23T01:18:02.253Z,100
2023-03-23T01:19:02.385Z,100
2023-03-23T01:20:02.210Z,100
2023-03-23T01:21:02.306Z,100
2023-03-23T01:22:02.457Z,100
2023-03-23T01:23:02.768Z,100
2023-03-23T01:24:01.560Z,100
2023-03-23T01:25:01.445Z,100
2023-03-23T01:26:02.142Z,100
2023-03-23T01:27:02.368Z,100
2023-03-23T01:28:02.011Z,100
2023-03-23T01:29:01.976Z,100
2023-03-23T01:30:02.017Z,100
2023-03-23T01:31:14.786Z,100
2023-03-23T01:33:01.769Z,100
2023-03-23T01:34:01.677Z,100
2023-03-23T01:35:01.651Z,100
2023-03-23T01:36:01.719Z,100
2023-03-23T01:37:02.094Z,100
2023-03-23T01:38:02.071Z,100
2023-03-23T01:39:02.031Z,100
2023-03-23T01:40:02.169Z,100
2023-03-23T01:41:01.968Z,100
2023-03-23T01:42:02.069Z,100
2023-03-23T01:43:02.026Z,100
2023-03-23T01:44:01.916Z,100
2023-03-23T01:45:01.976Z,100
2023-03-23T01:46:01.972Z,100
2023-03-23T01:47:02.127Z,100
2023-03-23T01:48:02.580Z,100
2023-03-23T01:49:02.305Z,100
2023-03-23T01:50:02.190Z,100
2023-03-23T01:51:02.186Z,100
2023-03-23T01:52:02.238Z,100
2023-03-23T01:53:02.368Z,100
2023-03-23T01:54:02.719Z,100
2023-03-23T01:55:02.499Z,100
2023-03-23T01:56:01.531Z,100
2023-03-23T01:57:02.507Z,100
2023-03-23T01:58:01.414Z,100
2023-03-23T01:59:02.485Z,100
2023-03-23T02:00:02.933Z,100
2023-03-23T02:01:02.103Z,100
2023-03-23T02:02:02.352Z,100
2023-03-23T02:03:02.481Z,100
2023-03-23T02:04:02.563Z,100
2023-03-23T02:05:01.956Z,100
2023-03-23T02:06:01.820Z,100
2023-03-23T02:07:01.831Z,100
2023-03-23T02:08:01.748Z,100
2023-03-23T02:09:10.772Z,100
2023-03-23T02:10:02.656Z,100
2023-03-23T02:11:02.445Z,100
2023-03-23T02:12:02.625Z,100
2023-03-23T02:13:02.321Z,100
2023-03-23T02:14:02.606Z,100
2023-03-23T02:15:02.444Z,100
2023-03-23T02:16:01.549Z,100
2023-03-23T02:17:01.563Z,100
2023-03-23T02:18:01.609Z,100
2023-03-23T02:19:02.650Z,100
2023-03-23T02:20:02.411Z,100
2023-03-23T02:21:01.780Z,100
2023-03-23T02:22:02.562Z,100
2023-03-23T02:23:02.773Z,100
2023-03-23T02:24:01.717Z,100
2023-03-23T02:25:01.564Z,100
2023-03-23T02:26:01.897Z,100
2023-03-23T02:27:01.831Z,100
2023-03-23T02:28:02.205Z,100
2023-03-23T02:29:02.186Z,100
2023-03-23T02:30:02.632Z,100
2023-03-23T02:31:01.848Z,100
2023-03-23T02:32:01.944Z,100
2023-03-23T02:33:01.988Z,100
2023-03-23T02:34:01.891Z,100
2023-03-23T02:35:02.091Z,100
2023-03-23T02:36:02.211Z,100
2023-03-23T02:37:02.461Z,100
2023-03-23T02:38:02.430Z,100
2023-03-23T02:39:02.633Z,100
2023-03-23T02:40:01.611Z,100
2023-03-23T02:41:01.652Z,100
2023-03-23T02:42:14.496Z,100
2023-03-23T02:43:01.631Z,100
2023-03-23T02:44:01.620Z,100
2023-03-23T02:45:01.517Z,100
2023-03-23T02:46:01.522Z,100
2023-03-23T02:47:02.503Z,100
2023-03-23T02:48:02.370Z,100
2023-03-23T02:49:02.461Z,100
2023-03-23T02:50:02.681Z,100
2023-03-23T02:51:02.642Z,100
2023-03-23T02:52:01.730Z,100
2023-03-23T02:53:01.705Z,100
2023-03-23T02:54:01.602Z,100
2023-03-23T02:55:01.602Z,100
2023-03-23T02:56:01.475Z,100
2023-03-23T02:57:01.561Z,100
2023-03-23T02:58:01.538Z,100
2023-03-23T02:59:01.637Z,100
2023-03-23T03:00:02.800Z,100
2023-03-23T03:01:01.862Z,100
2023-03-23T03:02:02.536Z,100
2023-03-23T03:03:02.655Z,100
2023-03-23T03:04:01.667Z,100
2023-03-23T03:05:02.708Z,100
2023-03-23T03:06:02.565Z,100
2023-03-23T03:07:01.456Z,100
2023-03-23T03:08:01.574Z,100
2023-03-23T03:09:02.095Z,100
2023-03-23T03:10:01.861Z,100
2023-03-23T03:11:01.934Z,100
2023-03-23T03:12:01.771Z,100
2023-03-23T03:13:01.939Z,100
2023-03-23T03:14:01.776Z,100
2023-03-23T03:15:02.239Z,100
2023-03-23T03:16:01.939Z,100
2023-03-23T03:17:01.860Z,100
2023-03-23T03:18:01.865Z,100
2023-03-23T03:19:01.920Z,100
2023-03-23T03:20:02.059Z,100
2023-03-23T03:21:02.385Z,100
2023-03-23T03:22:02.586Z,100
2023-03-23T03:23:02.284Z,100
2023-03-23T03:24:02.324Z,100
2023-03-23T03:25:18.926Z,100
2023-03-23T03:26:01.844Z,100
2023-03-23T03:27:02.102Z,100
2023-03-23T03:28:04.174Z,100
2023-03-23T03:29:01.910Z,100
2023-03-23T03:30:02.220Z,100
2023-03-23T03:31:02.010Z,100
2023-03-23T03:32:02.035Z,100
2023-03-23T03:33:01.800Z,100
2023-03-23T03:34:01.643Z,100
2023-03-23T03:35:01.708Z,100
2023-03-23T03:36:02.358Z,100
2023-03-23T03:37:02.052Z,100
2023-03-23T03:38:02.081Z,100
2023-03-23T03:39:01.934Z,100
2023-03-23T03:40:02.512Z,100
2023-03-23T03:41:02.949Z,100
2023-03-23T03:42:01.806Z,100
2023-03-23T03:43:02.105Z,100
2023-03-23T03:44:02.730Z,100
2023-03-23T03:45:01.939Z,100
2023-03-23T03:46:02.182Z,100
2023-03-23T03:47:02.331Z,100
2023-03-23T03:48:02.165Z,100
2023-03-23T03:49:02.699Z,100
2023-03-23T03:50:01.699Z,100
2023-03-23T03:51:01.803Z,100
2023-03-23T03:52:01.674Z,100
2023-03-23T03:53:01.645Z,100
2023-03-23T03:54:01.669Z,100
2023-03-23T03:55:01.777Z,100
2023-03-23T03:56:02.057Z,100
2023-03-23T03:57:02.341Z,100
2023-03-23T03:58:02.090Z,100
2023-03-23T03:59:23.238Z,100
2023-03-23T04:00:03.091Z,100
2023-03-23T04:01:02.520Z,100
2023-03-23T04:03:03.088Z,100
2023-03-23T04:04:02.173Z,100
2023-03-23T04:05:02.204Z,100
2023-03-23T04:06:02.375Z,100
2023-03-23T04:07:02.035Z,100
2023-03-23T04:08:10.045Z,100
2023-03-23T04:09:09.275Z,100
2023-03-23T04:10:01.697Z,100
2023-03-23T04:11:01.616Z,100
2023-03-23T04:12:02.911Z,100
2023-03-23T04:13:02.114Z,100
2023-03-23T04:14:02.356Z,100
2023-03-23T04:15:06.730Z,100
2023-03-23T04:16:11.345Z,100
2023-03-23T04:17:01.779Z,100
2023-03-23T04:18:02.173Z,100
2023-03-23T04:19:01.492Z,100
2023-03-23T04:20:02.174Z,100
2023-03-23T04:21:05.280Z,100
2023-03-23T04:22:02.089Z,100
2023-03-23T04:23:02.144Z,100
2023-03-23T04:24:02.351Z,100
2023-03-23T04:25:02.265Z,100
2023-03-23T04:26:01.866Z,100
2023-03-23T04:27:03.189Z,100
2023-03-23T04:28:02.689Z,100
2023-03-23T04:29:02.391Z,100
2023-03-23T04:30:02.659Z,100
2023-03-23T04:31:06.375Z,100
2023-03-23T04:33:02.549Z,100
2023-03-23T04:34:01.412Z,100
2023-03-23T04:35:14.250Z,100
2023-03-23T04:36:02.349Z,100
2023-03-23T04:37:01.755Z,100
2023-03-23T04:38:01.605Z,100
2023-03-23T04:39:01.656Z,100
2023-03-23T04:40:01.492Z,100
2023-03-23T04:41:02.491Z,100
2023-03-23T04:42:02.365Z,100
2023-03-23T04:43:02.384Z,100
2023-03-23T04:44:02.278Z,100
2023-03-23T04:45:02.309Z,100
2023-03-23T04:46:02.202Z,100
2023-03-23T04:48:02.074Z,100
2023-03-23T04:49:01.916Z,100
2023-03-23T04:50:01.937Z,100
2023-03-23T04:51:01.737Z,100
2023-03-23T04:52:02.136Z,100
2023-03-23T04:53:02.075Z,100
2023-03-23T04:54:01.949Z,100
2023-03-23T04:55:01.959Z,100
2023-03-23T04:56:01.901Z,100
2023-03-23T04:57:01.783Z,100
2023-03-23T04:58:01.851Z,100
2023-03-23T04:59:01.718Z,100
2023-03-23T05:00:02.763Z,100
2023-03-23T05:01:09.235Z,100
2023-03-23T05:02:15.007Z,100
2023-03-23T05:03:01.656Z,100
2023-03-23T05:04:01.716Z,100
2023-03-23T05:05:01.482Z,100
2023-03-23T05:06:02.517Z,100
2023-03-23T05:07:02.500Z,100
2023-03-23T05:08:02.507Z,100
2023-03-23T05:09:02.450Z,100
2023-03-23T05:10:02.454Z,100
2023-03-23T05:11:02.327Z,100
2023-03-23T05:12:02.437Z,100
2023-03-23T05:13:02.336Z,100
2023-03-23T05:14:02.406Z,100
2023-03-23T05:15:02.357Z,100
2023-03-23T05:16:02.252Z,100
2023-03-23T05:17:02.296Z,100
2023-03-23T05:18:02.169Z,100
2023-03-23T05:19:02.222Z,100
2023-03-23T05:20:02.073Z,100
2023-03-23T05:21:02.050Z,100
2023-03-23T05:22:02.091Z,100
2023-03-23T05:23:01.942Z,100
2023-03-23T05:24:01.966Z,100
2023-03-23T05:25:01.488Z,100
2023-03-23T05:26:02.513Z,100
2023-03-23T05:27:02.374Z,100
2023-03-23T05:28:02.526Z,100
2023-03-23T05:29:02.640Z,100
2023-03-23T05:30:02.470Z,100
2023-03-23T05:31:02.354Z,100
2023-03-23T05:33:02.208Z,100
2023-03-23T05:34:02.043Z,100
2023-03-23T05:35:02.032Z,100
2023-03-23T05:36:02.012Z,100
2023-03-23T05:37:01.897Z,100
2023-03-23T05:38:02.404Z,100
2023-03-23T05:39:02.055Z,100
2023-03-23T05:40:01.982Z,100
2023-03-23T05:41:02.064Z,100
2023-03-23T05:42:01.909Z,100
2023-03-23T05:43:01.993Z,100
2023-03-23T05:44:01.833Z,100
2023-03-23T05:45:01.851Z,100
2023-03-23T05:46:01.681Z,100
2023-03-23T05:47:01.758Z,100
2023-03-23T05:48:01.817Z,100
2023-03-23T05:49:01.715Z,100
2023-03-23T05:50:01.699Z,100
2023-03-23T05:51:01.525Z,100
2023-03-23T05:52:01.552Z,100
2023-03-23T05:53:02.512Z,100
2023-03-23T05:54:02.423Z,100
2023-03-23T05:55:02.416Z,100
2023-03-23T05:56:02.301Z,100
2023-03-23T05:57:02.353Z,100
2023-03-23T05:58:02.227Z,100
2023-03-23T05:59:02.238Z,100
2023-03-23T06:00:02.331Z,100
2023-03-23T06:01:02.193Z,100
2023-03-23T06:02:02.276Z,100
2023-03-23T06:03:02.273Z,100
2023-03-23T06:04:02.089Z,100
2023-03-23T06:05:02.177Z,100
2023-03-23T06:06:02.127Z,100
2023-03-23T06:07:01.917Z,100
2023-03-23T06:08:01.982Z,100
2023-03-23T06:09:01.842Z,100
2023-03-23T06:10:01.832Z,100
2023-03-23T06:11:01.692Z,100
2023-03-23T06:12:01.709Z,100
2023-03-23T06:13:01.536Z,100
2023-03-23T06:14:01.565Z,100
2023-03-23T06:15:02.540Z,100
2023-03-23T06:16:02.477Z,100
2023-03-23T06:18:01.558Z,100
2023-03-23T06:19:02.494Z,100
2023-03-23T06:20:02.349Z,100
2023-03-23T06:21:02.584Z,100
2023-03-23T06:22:02.410Z,100
2023-03-23T06:23:02.348Z,100
2023-03-23T06:24:02.277Z,100
2023-03-23T06:25:02.327Z,100
2023-03-23T06:26:05.004Z,100
2023-03-23T06:27:01.648Z,100
2023-03-23T06:28:01.829Z,100
2023-03-23T06:29:01.533Z,100
2023-03-23T06:30:01.649Z,100
2023-03-23T06:31:02.597Z,100
2023-03-23T06:33:01.481Z,100
2023-03-23T06:34:02.469Z,100
2023-03-23T06:35:02.404Z,100
2023-03-23T06:36:02.527Z,100
2023-03-23T06:37:02.309Z,100
2023-03-23T06:38:02.411Z,100
2023-03-23T06:39:02.266Z,100
2023-03-23T06:40:02.268Z,100
2023-03-23T06:41:04.401Z,100
2023-03-23T06:42:02.048Z,100
2023-03-23T06:43:02.037Z,100
2023-03-23T06:44:01.876Z,100
2023-03-23T06:45:01.918Z,100
2023-03-23T06:46:01.831Z,100
2023-03-23T06:48:01.755Z,100
2023-03-23T06:49:01.598Z,100
2023-03-23T06:50:01.647Z,100
2023-03-23T06:51:01.475Z,100
2023-03-23T06:52:02.529Z,100
2023-03-23T06:53:02.383Z,100
2023-03-23T06:54:02.411Z,100
2023-03-23T06:55:02.250Z,100
2023-03-23T06:56:02.306Z,100
2023-03-23T06:57:02.178Z,100
2023-03-23T06:58:02.225Z,100
2023-03-23T06:59:02.075Z,100
2023-03-23T07:00:02.200Z,100
2023-03-23T07:01:02.226Z,100
2023-03-23T07:03:01.806Z,100
2023-03-23T07:04:01.706Z,100
2023-03-23T07:05:01.709Z,100
2023-03-23T07:06:01.547Z,100
2023-03-23T07:07:01.618Z,100
2023-03-23T07:08:01.486Z,100
2023-03-23T07:09:02.561Z,100
2023-03-23T07:10:02.445Z,100
2023-03-23T07:11:02.500Z,100
2023-03-23T07:12:02.318Z,100
2023-03-23T07:13:02.452Z,100
2023-03-23T07:14:02.267Z,100
2023-03-23T07:15:02.336Z,100
2023-03-23T07:16:02.167Z,100
2023-03-23T07:17:02.123Z,100
2023-03-23T07:18:02.194Z,100
2023-03-23T07:19:02.032Z,100
2023-03-23T07:20:01.988Z,100
2023-03-23T07:21:02.121Z,100
2023-03-23T07:22:01.846Z,100
2023-03-23T07:23:01.826Z,100
2023-03-23T07:24:01.724Z,100
2023-03-23T07:25:01.802Z,100
2023-03-23T07:26:01.663Z,100
2023-03-23T07:27:01.658Z,100
2023-03-23T07:28:01.553Z,100
2023-03-23T07:29:01.609Z,100
2023-03-23T07:30:01.433Z,100
2023-03-23T07:31:02.509Z,100
2023-03-23T07:32:02.430Z,100
2023-03-23T07:33:02.463Z,100
2023-03-23T07:34:02.359Z,100
2023-03-23T07:35:07.728Z,100
2023-03-23T07:36:02.401Z,100
2023-03-23T07:37:02.387Z,100
2023-03-23T07:38:02.318Z,100
2023-03-23T07:39:02.306Z,100
2023-03-23T07:40:02.175Z,100
2023-03-23T07:41:02.224Z,100
2023-03-23T07:42:02.037Z,100
2023-03-23T07:43:01.978Z,100
2023-03-23T07:44:02.054Z,100
2023-03-23T07:45:01.939Z,100
2023-03-23T07:46:01.990Z,100
2023-03-23T07:48:15.841Z,100
2023-03-23T07:49:01.913Z,100
2023-03-23T07:50:02.034Z,100
2023-03-23T07:51:01.845Z,100
2023-03-23T07:52:01.863Z,100
2023-03-23T07:53:01.741Z,100
2023-03-23T07:54:01.761Z,100
2023-03-23T07:55:01.539Z,100
2023-03-23T07:56:01.589Z,100
2023-03-23T07:57:02.552Z,100
2023-03-23T07:58:02.424Z,100
2023-03-23T07:59:02.417Z,100
2023-03-23T08:00:02.490Z,100
2023-03-23T08:01:02.579Z,100
2023-03-23T08:03:02.171Z,100
2023-03-23T08:04:02.070Z,100
2023-03-23T08:05:01.987Z,100
2023-03-23T08:06:02.050Z,100
2023-03-23T08:07:01.954Z,100
2023-03-23T08:08:01.861Z,100
2023-03-23T08:09:01.902Z,100
2023-03-23T08:10:01.761Z,100
2023-03-23T08:11:01.741Z,100
2023-03-23T08:12:01.626Z,100
2023-03-23T08:13:01.659Z,100
2023-03-23T08:14:01.670Z,100
2023-03-23T08:15:01.585Z,100
2023-03-23T08:16:01.520Z,100
2023-03-23T08:17:01.700Z,100
2023-03-23T08:18:01.724Z,100
2023-03-23T08:19:09.077Z,100
2023-03-23T08:20:01.737Z,100
2023-03-23T08:21:01.745Z,100
2023-03-23T08:22:01.600Z,100
2023-03-23T08:23:01.635Z,99
2023-03-23T08:24:01.494Z,96
2023-03-23T08:25:01.498Z,94
2023-03-23T08:26:02.498Z,91
2023-03-23T08:27:02.360Z,92
2023-03-23T08:28:02.418Z,92
2023-03-23T08:29:02.252Z,90
2023-03-23T08:30:02.336Z,90
2023-03-23T08:31:02.114Z,90
2023-03-23T08:32:02.067Z,87
2023-03-23T08:33:02.061Z,88
2023-03-23T08:34:01.949Z,86
2023-03-23T08:35:01.896Z,86
2023-03-23T08:36:02.051Z,87
2023-03-23T08:37:01.808Z,86
2023-03-23T08:38:01.872Z,87
2023-03-23T08:39:01.730Z,88
2023-03-23T08:40:01.860Z,88
2023-03-23T08:41:01.622Z,87
2023-03-23T08:42:01.704Z,87
2023-03-23T08:43:01.588Z,85
2023-03-23T08:44:01.600Z,86
2023-03-23T08:45:01.398Z,84
2023-03-23T08:46:02.568Z,83
2023-03-23T08:47:02.552Z,82
2023-03-23T08:48:02.441Z,80
2023-03-23T08:49:02.382Z,80
2023-03-23T08:50:02.487Z,80
2023-03-23T08:51:02.303Z,79
2023-03-23T08:52:02.336Z,79
2023-03-23T08:53:02.263Z,77
2023-03-23T08:54:02.211Z,77
2023-03-23T08:55:02.237Z,76
2023-03-23T08:56:02.157Z,76
2023-03-23T08:57:02.142Z,76
2023-03-23T08:58:02.016Z,73
2023-03-23T08:59:01.979Z,74
2023-03-23T09:00:02.295Z,75
2023-03-23T09:01:02.210Z,73
2023-03-23T09:03:01.727Z,75
2023-03-23T09:04:01.604Z,73
2023-03-23T09:05:01.635Z,74
2023-03-23T09:06:01.547Z,74
2023-03-23T09:07:01.589Z,76
2023-03-23T09:08:02.546Z,74
2023-03-23T09:09:02.406Z,74
2023-03-23T09:10:02.483Z,76
2023-03-23T09:11:02.323Z,73
2023-03-23T09:12:02.428Z,73
2023-03-23T09:13:02.271Z,73
2023-03-23T09:14:02.331Z,72
2023-03-23T09:15:02.190Z,72
2023-03-23T09:16:02.366Z,72
2023-03-23T09:18:02.666Z,73
2023-03-23T09:19:02.397Z,72
2023-03-23T09:20:02.448Z,71
2023-03-23T09:21:02.346Z,70
2023-03-23T09:22:02.298Z,70
2023-03-23T09:23:02.194Z,71
2023-03-23T09:24:02.385Z,70
2023-03-23T09:25:02.167Z,68
2023-03-23T09:26:02.238Z,69
2023-03-23T09:27:02.079Z,69
2023-03-23T09:28:01.989Z,70
2023-03-23T09:29:02.049Z,69
2023-03-23T09:30:01.883Z,68
2023-03-23T09:31:01.933Z,69
2023-03-23T09:32:01.898Z,68
2023-03-23T09:33:02.187Z,67
2023-03-23T09:34:01.818Z,69
2023-03-23T09:35:01.884Z,68
2023-03-23T09:36:01.806Z,69
2023-03-23T09:37:01.756Z,68
2023-03-23T09:38:01.608Z,68
2023-03-23T09:39:01.641Z,65
2023-03-23T09:40:07.356Z,67
2023-03-23T09:41:02.026Z,66
2023-03-23T09:42:02.094Z,67
2023-03-23T09:43:01.945Z,67
2023-03-23T09:44:01.888Z,67
2023-03-23T09:45:01.999Z,67
2023-03-23T09:46:01.878Z,67
2023-03-23T09:48:02.550Z,68
2023-03-23T09:49:03.725Z,68
2023-03-23T09:50:02.420Z,67
2023-03-23T09:51:02.411Z,66
2023-03-23T09:52:02.316Z,67
2023-03-23T09:53:02.398Z,66
2023-03-23T09:54:02.255Z,64
2023-03-23T09:55:02.340Z,63
2023-03-23T09:56:02.248Z,63
2023-03-23T09:57:02.281Z,63
2023-03-23T09:58:02.228Z,63
2023-03-23T09:59:02.114Z,62
2023-03-23T10:00:02.236Z,62
2023-03-23T10:01:02.257Z,61
2023-03-23T10:02:02.151Z,62
2023-03-23T10:03:02.180Z,62
2023-03-23T10:04:02.058Z,61
2023-03-23T10:05:02.085Z,61
2023-03-23T10:06:02.140Z,59
2023-03-23T10:07:02.070Z,60
2023-03-23T10:08:02.011Z,59
2023-03-23T10:09:02.077Z,59
2023-03-23T10:10:01.835Z,60
2023-03-23T10:11:01.910Z,59
2023-03-23T10:12:01.771Z,58
2023-03-23T10:13:01.823Z,58
2023-03-23T10:14:01.663Z,59
2023-03-23T10:15:01.695Z,58
2023-03-23T10:16:01.579Z,57
2023-03-23T10:17:01.780Z,57
2023-03-23T10:18:01.756Z,57
2023-03-23T10:19:01.628Z,57
2023-03-23T10:20:01.667Z,56
2023-03-23T10:21:01.480Z,57
2023-03-23T10:22:02.529Z,56
2023-03-23T10:23:02.408Z,56
2023-03-23T10:24:02.501Z,56
2023-03-23T10:25:02.357Z,56
2023-03-23T10:26:02.453Z,55
2023-03-23T10:27:02.287Z,56
2023-03-23T10:28:02.409Z,55
2023-03-23T10:29:02.285Z,56
2023-03-23T10:30:02.369Z,57
2023-03-23T10:31:02.172Z,56
2023-03-23T10:32:02.077Z,57
2023-03-23T10:33:02.115Z,57
2023-03-23T10:34:01.993Z,57
2023-03-23T10:35:01.940Z,57
2023-03-23T10:36:02.038Z,57
2023-03-23T10:37:01.827Z,58
2023-03-23T10:38:01.881Z,57
2023-03-23T10:39:01.729Z,57
2023-03-23T10:40:01.747Z,57
2023-03-23T10:41:01.599Z,57
2023-03-23T10:42:01.672Z,57
2023-03-23T10:43:01.490Z,57
2023-03-23T10:44:01.504Z,57
2023-03-23T10:45:02.549Z,57
2023-03-23T10:46:03.100Z,58
2023-03-23T10:47:02.446Z,57
2023-03-23T10:48:02.344Z,57
2023-03-23T10:49:02.266Z,58
2023-03-23T10:50:02.379Z,58
2023-03-23T10:51:02.248Z,58
2023-03-23T10:52:02.093Z,58
2023-03-23T10:53:02.145Z,58
2023-03-23T10:54:01.991Z,59
2023-03-23T10:55:01.926Z,59
2023-03-23T10:56:01.930Z,59
2023-03-23T10:57:04.222Z,59
2023-03-23T10:58:01.861Z,59
2023-03-23T10:59:01.889Z,59
2023-03-23T11:00:02.316Z,59
2023-03-23T11:01:02.119Z,60
2023-03-23T11:03:01.499Z,60
2023-03-23T11:04:02.547Z,60
2023-03-23T11:05:11.291Z,60
2023-03-23T11:06:01.619Z,61
2023-03-23T11:07:01.629Z,60
2023-03-23T11:08:01.521Z,60
2023-03-23T11:09:02.499Z,60
2023-03-23T11:10:02.518Z,61
2023-03-23T11:11:02.356Z,61
2023-03-23T11:12:03.391Z,61
2023-03-23T11:13:02.343Z,61
2023-03-23T11:14:02.376Z,61
2023-03-23T11:15:02.315Z,61
2023-03-23T11:16:02.344Z,62
2023-03-23T11:17:15.953Z,62
2023-03-23T11:18:01.724Z,62
2023-03-23T11:19:01.754Z,61
2023-03-23T11:20:01.622Z,61
2023-03-23T11:21:01.640Z,61
2023-03-23T11:22:01.506Z,62
2023-03-23T11:23:01.578Z,62
2023-03-23T11:24:10.305Z,62
2023-03-23T11:25:02.077Z,62
2023-03-23T11:26:02.105Z,62
2023-03-23T11:27:01.972Z,62
2023-03-23T11:28:01.913Z,62
2023-03-23T11:29:01.926Z,62
2023-03-23T11:30:01.743Z,62
2023-03-23T11:31:01.731Z,63
2023-03-23T11:32:01.772Z,63
2023-03-23T11:33:01.839Z,62
2023-03-23T11:34:06.664Z,62
2023-03-23T11:35:16.473Z,62
2023-03-23T11:36:02.189Z,63
2023-03-23T11:37:02.121Z,62
2023-03-23T11:38:02.012Z,63
2023-03-23T11:39:01.928Z,63
2023-03-23T11:40:02.007Z,63
2023-03-23T11:41:02.041Z,63
2023-03-23T11:42:09.811Z,63
2023-03-23T11:43:01.525Z,63
2023-03-23T11:44:01.575Z,62
2023-03-23T11:45:02.570Z,63
2023-03-23T11:46:02.441Z,63
2023-03-23T11:48:01.635Z,63
2023-03-23T11:49:01.486Z,63
2023-03-23T11:50:02.558Z,64
2023-03-23T11:51:02.382Z,63
2023-03-23T11:52:02.447Z,64
2023-03-23T11:53:02.316Z,63
2023-03-23T11:54:02.413Z,63
2023-03-23T11:55:02.253Z,62
2023-03-23T11:56:02.440Z,63
2023-03-23T11:57:02.258Z,63
2023-03-23T11:58:02.288Z,63
2023-03-23T11:59:02.228Z,63
2023-03-23T12:00:03.058Z,63
2023-03-23T12:01:02.043Z,62
2023-03-23T12:02:17.355Z,62
2023-03-23T12:03:02.126Z,63
2023-03-23T12:04:02.175Z,62
2023-03-23T12:05:02.049Z,62
2023-03-23T12:06:01.988Z,63
2023-03-23T12:07:02.010Z,62
2023-03-23T12:08:01.842Z,62
2023-03-23T12:09:01.872Z,63
2023-03-23T12:10:01.746Z,62
2023-03-23T12:11:02.483Z,62
2023-03-23T12:12:01.869Z,63
2023-03-23T12:13:01.886Z,62
2023-03-23T12:14:01.705Z,62
2023-03-23T12:15:01.790Z,62
2023-03-23T12:16:01.572Z,62
2023-03-23T12:17:01.577Z,62
2023-03-23T12:18:01.679Z,62
2023-03-23T12:19:01.578Z,62
2023-03-23T12:20:01.612Z,61
2023-03-23T12:21:01.448Z,62
2023-03-23T12:22:02.503Z,62
2023-03-23T12:23:02.374Z,62
2023-03-23T12:24:04.342Z,62
2023-03-23T12:25:01.976Z,62
2023-03-23T12:26:02.026Z,62
2023-03-23T12:27:01.861Z,62
2023-03-23T12:28:01.874Z,62
2023-03-23T12:29:01.719Z,62
2023-03-23T12:30:01.782Z,62
2023-03-23T12:31:01.586Z,63
2023-03-23T12:32:01.632Z,62
2023-03-23T12:33:01.696Z,62
2023-03-23T12:34:01.539Z,62
2023-03-23T12:35:01.675Z,63
2023-03-23T12:36:01.625Z,63
2023-03-23T12:37:01.562Z,63
2023-03-23T12:38:02.531Z,62
2023-03-23T12:39:02.394Z,62
2023-03-23T12:40:02.480Z,62
2023-03-23T12:41:02.380Z,63
2023-03-23T12:42:02.362Z,63
2023-03-23T12:43:02.282Z,63
2023-03-23T12:44:02.356Z,63
2023-03-23T12:45:02.218Z,64
2023-03-23T12:46:02.233Z,63
2023-03-23T12:47:02.266Z,63
2023-03-23T12:48:02.110Z,63
2023-03-23T12:49:02.176Z,63
2023-03-23T12:50:02.023Z,63
2023-03-23T12:51:01.978Z,63
2023-03-23T12:52:02.017Z,63
2023-03-23T12:53:01.892Z,63
2023-03-23T12:54:01.892Z,63
2023-03-23T12:55:01.796Z,64
2023-03-23T12:56:01.860Z,64
2023-03-23T12:57:01.661Z,63
2023-03-23T12:58:01.705Z,64
2023-03-23T12:59:01.587Z,63
2023-03-23T13:00:01.963Z,63
2023-03-23T13:01:01.804Z,63
2023-03-23T13:02:02.427Z,63
2023-03-23T13:03:02.498Z,63
2023-03-23T13:04:02.349Z,64
2023-03-23T13:05:02.407Z,63
2023-03-23T13:06:02.252Z,63
2023-03-23T13:07:02.334Z,63
2023-03-23T13:08:02.155Z,64
2023-03-23T13:09:02.215Z,63
2023-03-23T13:10:02.040Z,64
2023-03-23T13:11:02.315Z,63
2023-03-23T13:12:02.419Z,64
2023-03-23T13:13:02.267Z,64
2023-03-23T13:14:02.397Z,64
2023-03-23T13:15:02.232Z,63
2023-03-23T13:16:02.277Z,63
2023-03-23T13:17:02.331Z,63
2023-03-23T13:18:02.201Z,63
2023-03-23T13:19:02.201Z,63
2023-03-23T13:20:02.201Z,63
2023-03-23T13:21:02.024Z,62
2023-03-23T13:22:02.063Z,62
2023-03-23T13:23:01.930Z,62
2023-03-23T13:24:01.916Z,62
2023-03-23T13:25:01.817Z,62
2023-03-23T13:26:01.808Z,62
2023-03-23T13:27:01.691Z,62
2023-03-23T13:28:01.729Z,63
2023-03-23T13:29:01.569Z,62
2023-03-23T13:30:01.615Z,62
2023-03-23T13:31:01.438Z,62
2023-03-23T13:32:02.396Z,62
2023-03-23T13:33:02.483Z,62
2023-03-23T13:34:02.355Z,62
2023-03-23T13:35:02.413Z,62
2023-03-23T13:36:06.158Z,62
2023-03-23T13:37:02.503Z,61
2023-03-23T13:38:02.421Z,62
2023-03-23T13:39:02.322Z,62
2023-03-23T13:40:02.399Z,62
2023-03-23T13:41:02.267Z,61
2023-03-23T13:42:02.301Z,61
2023-03-23T13:43:02.181Z,61
2023-03-23T13:44:02.241Z,61
2023-03-23T13:45:02.073Z,61
2023-03-23T13:46:01.973Z,61
2023-03-23T13:47:01.987Z,61
2023-03-23T13:48:02.038Z,61
2023-03-23T13:49:14.520Z,60
2023-03-23T13:50:02.213Z,61
2023-03-23T13:51:02.304Z,61
2023-03-23T13:52:02.336Z,61
2023-03-23T13:53:02.416Z,61
2023-03-23T13:54:02.510Z,61
2023-03-23T13:55:02.352Z,61
2023-03-23T13:56:15.541Z,61
2023-03-23T13:57:02.067Z,61
2023-03-23T13:58:02.163Z,61
2023-03-23T13:59:01.998Z,61
2023-03-23T14:00:02.558Z,60
2023-03-23T14:01:01.616Z,60
2023-03-23T14:02:01.689Z,60
2023-03-23T14:03:01.695Z,60
2023-03-23T14:04:01.614Z,60
2023-03-23T14:05:01.632Z,60
2023-03-23T14:06:02.523Z,60
2023-03-23T14:07:02.400Z,60
2023-03-23T14:08:02.473Z,60
2023-03-23T14:09:02.334Z,60
2023-03-23T14:10:02.416Z,60
2023-03-23T14:11:02.278Z,60
2023-03-23T14:12:02.292Z,60
2023-03-23T14:13:02.280Z,61
2023-03-23T14:14:02.233Z,60